KHPN/HPN METAR and TAF weather

Enter ICAO airport designator
Station Type Date Time Source
KHPN METAR 2019/08/21 01:56 UTC NOAA

KHPN 210156Z 00000KT 10SM CLR 23/19 A3006 RMK AO2 SLP172 T02280194 $


Station Type Date Time Source
KHPN Decoded METAR 2019/08/21 01:56 UTC NOAA

Station name not available
Aug 20, 2019 - 09:56 PM EDT / 2019.08.21 0156 UTC
Wind: Calm:0
Visibility: 10 mile(s):0
Sky conditions: clear
Temperature: 73.0 F (22.8 C)
Dew Point: 66.9 F (19.4 C)
Relative Humidity: 81%
Pressure (altimeter): 30.06 in. Hg (1017 hPa)
ob: KHPN 210156Z 00000KT 10SM CLR 23/19 A3006 RMK AO2 SLP172 T02280194
cycle: 2

Station Type Date Time Source
KHPN TAF 2019/08/21 03:40 UTC NOAA

TAF
AMD KHPN 210238Z 2103/2124 VRB02KT P6SM FEW050 BKN250
FM210800 VRB02KT P6SM VCSH FEW025 SCT050 BKN150
FM211400 17006KT P6SM FEW035 BKN060
FM211900 18008KT P6SM BKN060 BKN100 PROB30 2119/2124 5SM -TSRA SCT030 BKN040CB
AMD NOT SKED

Example: see airport list